createdAt,value
2023-03-31T00:01:34.076Z,86.52
2023-03-31T00:04:04.541Z,86.59
2023-03-31T00:06:38.461Z,86.61
2023-03-31T00:09:09.581Z,86.56
2023-03-31T00:11:42.290Z,86.54
2023-03-31T00:14:10.000Z,86.46
2023-03-31T00:16:39.215Z,86.56
2023-03-31T00:19:10.132Z,86.40
2023-03-31T00:21:37.811Z,86.37
2023-03-31T00:24:11.575Z,86.42
2023-03-31T00:26:39.369Z,86.29
2023-03-31T00:29:08.563Z,86.42
2023-03-31T00:31:36.407Z,86.25
2023-03-31T00:34:04.866Z,86.05
2023-03-31T00:36:36.731Z,86.02
2023-03-31T00:39:08.838Z,85.91
2023-03-31T00:41:39.309Z,85.92
2023-03-31T00:44:24.496Z,85.91
2023-03-31T00:47:13.099Z,85.92
2023-03-31T00:49:45.356Z,85.84
2023-03-31T00:52:26.802Z,85.82
2023-03-31T00:55:03.777Z,86.03
2023-03-31T00:57:39.529Z,85.91
2023-03-31T01:00:16.700Z,85.74
2023-03-31T01:02:56.043Z,85.73
2023-03-31T01:05:37.880Z,85.58
2023-03-31T01:08:07.089Z,85.64
2023-03-31T01:10:41.911Z,85.67
2023-03-31T01:13:10.937Z,85.47
2023-03-31T01:15:39.191Z,85.41
2023-03-31T01:18:07.459Z,85.38
2023-03-31T01:20:35.532Z,85.54
2023-03-31T01:23:12.005Z,85.52
2023-03-31T01:26:01.523Z,85.40
2023-03-31T01:28:54.879Z,85.25
2023-03-31T01:31:47.092Z,85.04
2023-03-31T01:34:39.884Z,85.09
2023-03-31T01:37:42.307Z,84.94
2023-03-31T01:40:37.768Z,84.85
2023-03-31T01:43:21.528Z,84.82
2023-03-31T01:46:02.258Z,84.88
2023-03-31T01:48:50.200Z,84.98
2023-03-31T01:51:23.282Z,84.84
2023-03-31T01:53:58.826Z,84.85
2023-03-31T01:56:35.408Z,84.80
2023-03-31T01:59:11.569Z,84.70
2023-03-31T02:01:45.314Z,84.61
2023-03-31T02:04:45.076Z,84.54
2023-03-31T02:07:20.251Z,84.49
2023-03-31T02:09:53.826Z,84.49
2023-03-31T02:12:24.913Z,84.44
2023-03-31T02:14:55.412Z,84.53
2023-03-31T02:17:30.647Z,84.40
2023-03-31T02:20:05.840Z,84.33
2023-03-31T02:22:37.610Z,84.35
2023-03-31T02:25:08.256Z,84.23
2023-03-31T02:27:40.280Z,84.16
2023-03-31T02:30:09.801Z,84.06
2023-03-31T02:32:40.636Z,84.09
2023-03-31T02:35:13.440Z,84.07
2023-03-31T02:37:42.721Z,84.00
2023-03-31T02:40:16.863Z,84.00
2023-03-31T02:42:45.037Z,84.22
2023-03-31T02:45:39.513Z,84.26
2023-03-31T02:48:11.733Z,84.19
2023-03-31T02:50:50.827Z,84.25
2023-03-31T02:53:54.446Z,84.39
2023-03-31T02:56:38.528Z,84.61
2023-03-31T02:59:12.028Z,84.68
2023-03-31T03:01:54.688Z,84.92
2023-03-31T03:04:49.788Z,84.97
2023-03-31T03:07:26.741Z,84.85
2023-03-31T03:10:00.256Z,85.12
2023-03-31T03:12:50.964Z,85.39
2023-03-31T03:15:26.588Z,85.21
2023-03-31T03:17:56.415Z,85.14
2023-03-31T03:20:24.603Z,85.16
2023-03-31T03:22:52.364Z,85.30
2023-03-31T03:25:24.377Z,85.25
2023-03-31T03:27:54.612Z,85.32
2023-03-31T03:30:22.688Z,85.41
2023-03-31T03:32:50.582Z,85.29
2023-03-31T03:35:18.283Z,85.18
2023-03-31T03:37:46.018Z,85.21
2023-03-31T03:40:13.776Z,85.32
2023-03-31T03:42:41.468Z,85.47
2023-03-31T03:45:09.429Z,85.36
2023-03-31T03:47:37.214Z,85.29
2023-03-31T03:50:05.853Z,85.27
2023-03-31T03:52:33.520Z,85.31
2023-03-31T03:55:02.001Z,85.25
2023-03-31T03:57:29.880Z,85.21
2023-03-31T03:59:57.781Z,85.47
2023-03-31T04:02:27.947Z,85.54
2023-03-31T04:04:55.964Z,85.60
2023-03-31T04:07:23.939Z,85.41
2023-03-31T04:09:51.609Z,85.24
2023-03-31T04:12:19.267Z,85.27
2023-03-31T04:14:46.920Z,85.22
2023-03-31T04:17:15.935Z,85.28
2023-03-31T04:19:43.853Z,85.36
2023-03-31T04:22:11.899Z,85.35
2023-03-31T04:24:39.591Z,85.32
2023-03-31T04:27:07.581Z,85.41
2023-03-31T04:29:37.326Z,85.61
2023-03-31T04:32:05.367Z,85.55
2023-03-31T04:34:36.135Z,85.69
2023-03-31T04:37:04.495Z,85.77
2023-03-31T04:39:32.293Z,85.73
2023-03-31T04:42:01.172Z,85.74
2023-03-31T04:44:29.844Z,85.84
2023-03-31T04:46:59.014Z,85.88
2023-03-31T04:49:26.712Z,85.94
2023-03-31T04:51:54.382Z,85.94
2023-03-31T04:54:22.120Z,85.94
2023-03-31T04:56:49.794Z,86.02
2023-03-31T04:59:17.468Z,85.95
2023-03-31T05:01:45.333Z,86.19
2023-03-31T05:04:13.153Z,86.14
2023-03-31T05:06:41.154Z,86.08
2023-03-31T05:09:10.298Z,85.99
2023-03-31T05:11:38.476Z,85.91
2023-03-31T05:14:06.668Z,85.93
2023-03-31T05:16:34.697Z,85.84
2023-03-31T05:19:02.598Z,85.79
2023-03-31T05:21:31.270Z,85.79
2023-03-31T05:23:59.263Z,85.73
2023-03-31T05:26:27.210Z,85.74
2023-03-31T05:28:54.988Z,85.68
2023-03-31T05:31:23.286Z,85.76
2023-03-31T05:33:51.912Z,85.82
2023-03-31T05:36:19.815Z,85.86
2023-03-31T05:38:47.800Z,85.94
2023-03-31T05:41:17.053Z,85.88
2023-03-31T05:43:44.863Z,85.83
2023-03-31T05:46:12.713Z,85.91
2023-03-31T05:48:41.425Z,85.86
2023-03-31T05:51:09.113Z,85.81
2023-03-31T05:53:36.823Z,85.82
2023-03-31T05:56:06.940Z,85.74
2023-03-31T05:58:36.310Z,85.68
2023-03-31T06:01:10.318Z,85.63
2023-03-31T06:03:41.511Z,85.64
2023-03-31T06:06:10.458Z,85.55
2023-03-31T06:08:38.109Z,85.51
2023-03-31T06:11:07.565Z,85.48
2023-03-31T06:13:36.959Z,85.40
2023-03-31T06:16:05.915Z,85.27
2023-03-31T06:18:36.377Z,85.18
2023-03-31T06:21:05.151Z,85.08
2023-03-31T06:23:33.817Z,85.04
2023-03-31T06:26:04.254Z,85.08
2023-03-31T06:28:32.071Z,85.12
2023-03-31T06:31:05.225Z,85.16
2023-03-31T06:33:34.115Z,85.12
2023-03-31T06:36:04.313Z,84.89
2023-03-31T06:38:37.008Z,84.55
2023-03-31T06:41:06.799Z,84.20
2023-03-31T06:43:35.287Z,83.80
2023-03-31T06:46:04.164Z,83.60
2023-03-31T06:48:32.412Z,83.44
2023-03-31T06:51:02.460Z,83.46
2023-03-31T06:53:30.687Z,83.42
2023-03-31T06:55:58.525Z,83.36
2023-03-31T06:58:27.722Z,83.13
2023-03-31T07:00:56.928Z,82.94
2023-03-31T07:03:25.503Z,82.23
2023-03-31T07:05:55.096Z,82.10
2023-03-31T07:08:23.812Z,82.03
2023-03-31T07:11:00.040Z,81.64
2023-03-31T07:13:28.376Z,81.56
2023-03-31T07:15:56.540Z,81.27
2023-03-31T07:18:35.062Z,81.26
2023-03-31T07:21:07.292Z,81.25
2023-03-31T07:23:37.885Z,81.23
2023-03-31T07:26:06.563Z,81.10
2023-03-31T07:28:35.364Z,80.86
2023-03-31T07:31:03.447Z,80.74
2023-03-31T07:33:31.953Z,80.57
2023-03-31T07:36:11.638Z,80.18
2023-03-31T07:38:43.021Z,80.26
2023-03-31T07:41:12.948Z,80.18
2023-03-31T07:43:40.913Z,79.99
2023-03-31T07:46:16.308Z,80.12
2023-03-31T07:48:44.407Z,80.20
2023-03-31T07:51:16.938Z,80.25
2023-03-31T07:53:46.299Z,80.30
2023-03-31T07:56:14.005Z,80.34
2023-03-31T07:58:42.037Z,80.35
2023-03-31T08:01:09.919Z,80.44
2023-03-31T08:03:37.632Z,80.12
2023-03-31T08:06:05.670Z,79.85
2023-03-31T08:08:33.683Z,79.77
2023-03-31T08:11:01.625Z,79.80
2023-03-31T08:13:29.502Z,79.54
2023-03-31T08:15:57.269Z,79.25
2023-03-31T08:18:25.167Z,78.71
2023-03-31T08:20:53.116Z,78.20
2023-03-31T08:23:21.086Z,77.78
2023-03-31T08:25:48.887Z,77.89
2023-03-31T08:28:17.658Z,77.63
2023-03-31T08:30:46.356Z,77.68
2023-03-31T08:33:14.276Z,77.45
2023-03-31T08:35:42.061Z,76.57
2023-03-31T08:38:09.816Z,76.30
2023-03-31T08:40:41.779Z,76.81
2023-03-31T08:43:19.053Z,76.79
2023-03-31T08:45:48.749Z,76.15
2023-03-31T08:48:52.173Z,75.86
2023-03-31T08:51:28.427Z,75.51
2023-03-31T08:53:59.472Z,74.80
2023-03-31T08:56:27.946Z,75.04
2023-03-31T08:58:55.954Z,75.10
2023-03-31T09:01:54.476Z,74.78
2023-03-31T09:04:32.333Z,74.69
2023-03-31T09:07:34.965Z,74.35
2023-03-31T09:10:29.020Z,73.81
2023-03-31T09:13:17.822Z,73.88
2023-03-31T09:15:57.523Z,74.31
2023-03-31T09:18:32.228Z,74.70
2023-03-31T09:21:10.735Z,74.38
2023-03-31T09:23:44.676Z,74.02
2023-03-31T09:26:53.533Z,73.78
2023-03-31T09:29:29.557Z,73.94
2023-03-31T09:32:15.075Z,73.26
2023-03-31T09:34:44.454Z,72.82
2023-03-31T09:37:13.170Z,72.91
2023-03-31T09:39:41.432Z,72.74
2023-03-31T09:42:13.584Z,72.38
2023-03-31T09:44:44.742Z,72.41
2023-03-31T09:47:21.165Z,72.58
2023-03-31T09:49:53.658Z,72.35
2023-03-31T09:52:31.813Z,71.69
2023-03-31T09:55:01.554Z,71.13
2023-03-31T09:57:34.100Z,71.05
2023-03-31T10:00:23.103Z,71.31
2023-03-31T10:02:57.693Z,71.54
2023-03-31T10:05:36.594Z,71.36
2023-03-31T10:08:13.128Z,71.60
2023-03-31T10:10:55.566Z,71.98
2023-03-31T10:13:29.563Z,71.70
2023-03-31T10:16:08.471Z,71.40
2023-03-31T10:18:39.669Z,70.12
2023-03-31T10:21:20.324Z,70.59
2023-03-31T10:23:49.629Z,70.06
2023-03-31T10:26:22.925Z,69.60
2023-03-31T10:28:52.867Z,69.62
2023-03-31T10:31:34.723Z,69.45
2023-03-31T10:34:08.315Z,68.81
2023-03-31T10:36:36.743Z,68.95
2023-03-31T10:39:09.256Z,67.94
2023-03-31T10:41:38.818Z,67.38
2023-03-31T10:44:06.720Z,66.85
2023-03-31T10:46:44.296Z,66.98
2023-03-31T10:49:21.061Z,66.06
2023-03-31T10:52:00.025Z,66.64
2023-03-31T10:54:27.937Z,66.38
2023-03-31T10:57:01.552Z,65.90
2023-03-31T10:59:36.426Z,64.93
2023-03-31T11:02:28.751Z,65.58
2023-03-31T11:05:25.536Z,65.13
2023-03-31T11:08:20.390Z,64.63
2023-03-31T11:11:09.640Z,65.55
2023-03-31T11:13:48.798Z,65.61
2023-03-31T11:16:33.914Z,65.99
2023-03-31T11:19:22.337Z,64.82
2023-03-31T11:22:07.411Z,64.97
2023-03-31T11:25:06.207Z,64.67
2023-03-31T11:28:00.147Z,64.29
2023-03-31T11:30:38.314Z,64.47
2023-03-31T11:33:35.761Z,63.52
2023-03-31T11:36:19.084Z,62.60
2023-03-31T11:38:47.634Z,63.96
2023-03-31T11:41:19.961Z,63.79
2023-03-31T11:43:48.268Z,62.16
2023-03-31T11:46:23.997Z,61.34
2023-03-31T11:48:59.589Z,61.31
2023-03-31T11:51:33.492Z,60.95
2023-03-31T11:54:12.098Z,62.13
2023-03-31T11:56:41.519Z,62.38
2023-03-31T11:59:14.912Z,61.78
2023-03-31T12:01:50.509Z,61.23
2023-03-31T12:04:30.772Z,61.51
2023-03-31T12:07:04.796Z,60.94
2023-03-31T12:09:50.144Z,61.59
2023-03-31T12:12:28.929Z,59.75
2023-03-31T12:15:18.813Z,61.10
2023-03-31T12:17:49.906Z,61.27
2023-03-31T12:20:31.812Z,60.80
2023-03-31T12:23:03.713Z,61.29
2023-03-31T12:25:45.857Z,60.11
2023-03-31T12:28:15.365Z,59.30
2023-03-31T12:30:45.186Z,59.91
2023-03-31T12:33:28.821Z,59.30
2023-03-31T12:36:18.732Z,60.30
2023-03-31T12:38:58.450Z,60.31
2023-03-31T12:41:47.848Z,59.82
2023-03-31T12:44:27.571Z,60.35
2023-03-31T12:47:13.372Z,60.04
2023-03-31T12:50:09.264Z,60.15
2023-03-31T12:52:36.946Z,59.34
2023-03-31T12:55:29.073Z,59.67
2023-03-31T12:58:24.876Z,59.94
2023-03-31T13:01:14.814Z,59.53
2023-03-31T13:04:03.628Z,58.17
2023-03-31T13:06:31.737Z,58.40
2023-03-31T13:09:08.929Z,59.34
2023-03-31T13:11:44.797Z,59.73
2023-03-31T13:14:27.493Z,60.36
2023-03-31T13:17:14.700Z,60.51
2023-03-31T13:19:42.747Z,59.93
2023-03-31T13:22:29.145Z,60.25
2023-03-31T13:25:31.546Z,60.28
2023-03-31T13:28:17.474Z,60.23
2023-03-31T13:30:47.114Z,60.79
2023-03-31T13:33:25.627Z,60.59
2023-03-31T13:36:16.175Z,60.38
2023-03-31T13:39:11.044Z,60.27
2023-03-31T13:42:14.793Z,60.08
2023-03-31T13:44:42.486Z,59.95
2023-03-31T13:47:34.565Z,60.47
2023-03-31T13:50:54.343Z,59.81
2023-03-31T13:53:48.843Z,58.95
2023-03-31T13:56:32.750Z,58.59
2023-03-31T13:59:22.034Z,58.57
2023-03-31T14:02:22.119Z,59.09
2023-03-31T14:05:07.992Z,59.29
2023-03-31T14:07:51.043Z,59.54
2023-03-31T14:10:24.625Z,59.43
2023-03-31T14:12:53.006Z,59.90
2023-03-31T14:15:22.466Z,60.42
2023-03-31T14:17:50.463Z,60.72
2023-03-31T14:20:33.623Z,60.94
2023-03-31T14:23:48.261Z,61.03
2023-03-31T14:26:34.566Z,61.61
2023-03-31T14:29:11.143Z,61.86
2023-03-31T14:32:04.805Z,62.04
2023-03-31T14:35:10.532Z,62.07
2023-03-31T14:37:38.620Z,61.99
2023-03-31T14:40:11.224Z,61.89
2023-03-31T14:42:41.008Z,62.08
2023-03-31T14:45:26.635Z,62.22
2023-03-31T14:48:03.075Z,62.24
2023-03-31T14:50:35.669Z,62.37
2023-03-31T14:53:05.083Z,63.52
2023-03-31T14:55:49.292Z,65.12
2023-03-31T14:58:32.214Z,66.60
2023-03-31T15:01:00.213Z,67.72
2023-03-31T15:03:29.205Z,68.60
2023-03-31T15:05:59.571Z,69.31
2023-03-31T15:08:29.806Z,71.13
2023-03-31T15:13:56.703Z,71.86
2023-03-31T15:16:38.127Z,72.27
2023-03-31T15:19:14.122Z,73.53
2023-03-31T15:21:42.627Z,74.19
2023-03-31T15:24:13.433Z,74.07
2023-03-31T15:26:55.333Z,75.23
2023-03-31T15:29:35.281Z,76.05
2023-03-31T15:32:07.458Z,75.85
2023-03-31T15:34:37.052Z,76.83
2023-03-31T15:37:07.946Z,77.41
2023-03-31T15:39:38.146Z,76.20
2023-03-31T15:42:08.777Z,78.37
2023-03-31T15:44:48.360Z,78.16
2023-03-31T15:47:29.359Z,78.57
2023-03-31T15:50:15.778Z,79.66
2023-03-31T15:52:48.665Z,78.82
2023-03-31T15:55:33.272Z,78.29
2023-03-31T15:58:03.172Z,78.31
2023-03-31T16:00:54.622Z,78.10
2023-03-31T16:03:51.991Z,78.58
2023-03-31T16:06:26.699Z,78.75
2023-03-31T16:09:06.239Z,78.39
2023-03-31T16:11:45.531Z,78.47
2023-03-31T16:14:20.183Z,78.39
2023-03-31T16:16:56.617Z,78.45
2023-03-31T16:19:27.329Z,78.36
2023-03-31T16:21:59.710Z,78.24
2023-03-31T16:24:36.084Z,78.21
2023-03-31T16:27:07.892Z,78.60
2023-03-31T16:29:37.851Z,78.57
2023-03-31T16:32:14.760Z,78.53
2023-03-31T16:35:03.635Z,78.33
2023-03-31T16:37:32.005Z,78.59
2023-03-31T16:39:59.763Z,78.68
2023-03-31T16:42:28.056Z,78.73
2023-03-31T16:45:13.138Z,78.71
2023-03-31T16:47:45.280Z,78.44
2023-03-31T16:50:15.425Z,78.85
2023-03-31T16:52:44.801Z,79.15
2023-03-31T16:55:14.526Z,78.99
2023-03-31T16:57:42.267Z,79.18
2023-03-31T17:00:10.742Z,77.98
2023-03-31T17:02:38.972Z,77.73
2023-03-31T17:05:13.139Z,77.83
2023-03-31T17:07:41.797Z,78.04
2023-03-31T17:10:10.150Z,78.29
2023-03-31T17:12:42.445Z,78.94
2023-03-31T17:15:17.147Z,79.53
2023-03-31T17:17:44.854Z,80.05
2023-03-31T17:20:12.956Z,80.28
2023-03-31T17:22:40.724Z,80.40
2023-03-31T17:25:09.256Z,80.39
2023-03-31T17:27:37.763Z,80.56
2023-03-31T17:30:07.214Z,81.21
2023-03-31T17:32:35.928Z,81.87
2023-03-31T17:35:04.347Z,82.25
2023-03-31T17:37:33.141Z,83.13
2023-03-31T17:40:01.075Z,83.35
2023-03-31T17:42:30.912Z,83.63
2023-03-31T17:44:58.828Z,84.05
2023-03-31T17:47:27.316Z,84.38
2023-03-31T17:49:55.059Z,84.53
2023-03-31T17:52:22.784Z,84.65
2023-03-31T17:54:51.877Z,84.78
2023-03-31T17:57:19.585Z,84.90
2023-03-31T17:59:48.760Z,84.95
2023-03-31T18:02:16.476Z,85.09
2023-03-31T18:04:44.845Z,85.12
2023-03-31T18:07:13.068Z,85.37
2023-03-31T18:09:40.772Z,85.65
2023-03-31T18:12:08.531Z,85.84
2023-03-31T18:14:36.238Z,86.08
2023-03-31T18:17:04.063Z,86.12
2023-03-31T18:19:31.990Z,86.32
2023-03-31T18:21:59.677Z,86.34
2023-03-31T18:24:27.428Z,86.31
2023-03-31T18:26:55.202Z,86.38
2023-03-31T18:29:23.221Z,86.74
2023-03-31T18:31:53.359Z,86.88
2023-03-31T18:34:21.577Z,86.78
2023-03-31T18:36:49.847Z,86.72
2023-03-31T18:39:17.612Z,86.61
2023-03-31T18:41:47.878Z,87.01
2023-03-31T18:44:19.766Z,86.94
2023-03-31T18:46:47.759Z,85.76
2023-03-31T18:49:15.763Z,85.94
2023-03-31T18:51:43.737Z,86.35
2023-03-31T18:54:12.111Z,86.49
2023-03-31T18:56:39.803Z,86.73
2023-03-31T18:59:07.715Z,86.91
2023-03-31T19:01:40.098Z,87.00
2023-03-31T19:04:11.789Z,87.18
2023-03-31T19:06:43.175Z,87.39
2023-03-31T19:09:11.717Z,87.31
2023-03-31T19:11:39.502Z,87.27
2023-03-31T19:14:07.446Z,87.20
2023-03-31T19:16:42.532Z,87.44
2023-03-31T19:19:11.569Z,87.81
2023-03-31T19:21:58.151Z,87.96
2023-03-31T19:24:26.341Z,88.00
2023-03-31T19:26:54.177Z,88.07
2023-03-31T19:29:22.408Z,88.07
2023-03-31T19:31:50.506Z,88.10
2023-03-31T19:34:18.275Z,88.16
2023-03-31T19:36:46.356Z,88.10
2023-03-31T19:39:14.526Z,88.09
2023-03-31T19:41:42.351Z,88.10
2023-03-31T19:44:10.146Z,88.06
2023-03-31T19:46:37.983Z,88.09
2023-03-31T19:49:05.892Z,88.06
2023-03-31T19:51:36.809Z,88.11
2023-03-31T19:54:04.599Z,88.08
2023-03-31T19:56:34.552Z,88.02
2023-03-31T19:59:02.783Z,88.01
2023-03-31T20:01:30.786Z,87.98
2023-03-31T20:03:58.698Z,87.94
2023-03-31T20:06:29.450Z,87.68
2023-03-31T20:09:02.100Z,87.76
2023-03-31T20:11:32.327Z,87.92
2023-03-31T20:14:00.868Z,88.09
2023-03-31T20:16:31.589Z,88.23
2023-03-31T20:19:04.164Z,88.37
2023-03-31T20:21:34.406Z,88.60
2023-03-31T20:24:02.875Z,88.52
2023-03-31T20:26:32.531Z,88.53
2023-03-31T20:29:02.825Z,88.50
2023-03-31T20:31:36.506Z,88.47
2023-03-31T20:34:08.582Z,88.57
2023-03-31T20:36:36.230Z,88.49
2023-03-31T20:39:05.736Z,88.47
2023-03-31T20:41:37.310Z,88.55
2023-03-31T20:44:07.547Z,88.54
2023-03-31T20:46:36.074Z,88.54
2023-03-31T20:49:03.895Z,88.55
2023-03-31T20:51:34.844Z,88.53
2023-03-31T20:54:02.480Z,88.59
2023-03-31T20:56:41.733Z,88.62
2023-03-31T20:59:15.133Z,88.66
2023-03-31T21:01:45.245Z,88.66
2023-03-31T21:04:14.143Z,88.69
2023-03-31T21:06:44.726Z,88.70
2023-03-31T21:09:14.299Z,88.78
2023-03-31T21:11:42.504Z,88.78
2023-03-31T21:14:13.593Z,88.73
2023-03-31T21:16:41.409Z,88.79
2023-03-31T21:19:09.660Z,88.77
2023-03-31T21:21:40.185Z,88.73
2023-03-31T21:24:09.505Z,88.70
2023-03-31T21:26:37.249Z,88.75
2023-03-31T21:29:05.322Z,88.76
2023-03-31T21:31:33.273Z,88.71
2023-03-31T21:34:02.773Z,88.59
2023-03-31T21:36:30.964Z,88.36
2023-03-31T21:38:58.749Z,88.51
2023-03-31T21:41:30.018Z,88.59
2023-03-31T21:44:02.948Z,88.52
2023-03-31T21:46:33.117Z,88.62
2023-03-31T21:49:02.565Z,88.51
2023-03-31T21:51:30.415Z,88.39
2023-03-31T21:53:58.444Z,88.53
2023-03-31T21:56:28.390Z,88.74
2023-03-31T21:59:01.280Z,88.89
2023-03-31T22:01:29.043Z,88.95
2023-03-31T22:03:57.301Z,89.04
2023-03-31T22:06:25.012Z,89.09
2023-03-31T22:08:52.680Z,89.12
2023-03-31T22:11:20.433Z,89.15
2023-03-31T22:13:48.143Z,89.18
2023-03-31T22:16:19.462Z,89.20
2023-03-31T22:18:50.180Z,89.24
2023-03-31T22:21:24.672Z,89.25
2023-03-31T22:23:58.574Z,89.25
2023-03-31T22:26:28.662Z,89.27
2023-03-31T22:28:57.128Z,89.37
2023-03-31T22:31:26.435Z,89.35
2023-03-31T22:33:54.227Z,89.37
2023-03-31T22:36:21.978Z,89.30
2023-03-31T22:38:49.785Z,89.32
2023-03-31T22:41:17.668Z,89.39
2023-03-31T22:43:46.416Z,89.43
2023-03-31T22:46:15.035Z,89.53
2023-03-31T22:48:44.212Z,89.57
2023-03-31T22:51:12.305Z,88.94
2023-03-31T22:53:40.069Z,88.54
2023-03-31T22:56:11.941Z,88.38
2023-03-31T22:58:39.654Z,88.52
2023-03-31T23:01:09.837Z,88.29
2023-03-31T23:03:38.105Z,88.06
2023-03-31T23:06:06.631Z,87.60
2023-03-31T23:08:36.785Z,87.55
2023-03-31T23:11:07.606Z,87.37
2023-03-31T23:13:36.095Z,87.77
2023-03-31T23:16:09.773Z,87.61
2023-03-31T23:18:44.316Z,87.81
2023-03-31T23:21:13.458Z,87.81
2023-03-31T23:23:42.284Z,87.67
2023-03-31T23:26:14.795Z,87.58
2023-03-31T23:29:06.152Z,87.79
2023-03-31T23:31:34.491Z,87.50
2023-03-31T23:34:04.659Z,87.70
2023-03-31T23:36:32.361Z,87.63
2023-03-31T23:39:00.096Z,87.75
2023-03-31T23:41:27.785Z,87.71
2023-03-31T23:43:57.807Z,87.81
2023-03-31T23:46:26.075Z,87.98
2023-03-31T23:48:54.453Z,87.91
2023-03-31T23:51:22.131Z,87.82
2023-03-31T23:53:50.213Z,87.99
2023-03-31T23:56:18.208Z,88.00
2023-03-31T23:58:46.095Z,88.08
